GCTS/TFS METAR and TAF weather

Enter ICAO airport designator
Station Type Date Time Source
GCTS METAR 2020/09/19 21:00 UTC NOAA

GCTS 192100Z 06013KT 9999 FEW025 23/18 Q1018 NOSIG


Station Type Date Time Source
GCTS Decoded METAR 2020/09/19 21:00 UTC NOAA

Tenerife Sur, Spain (GCTS) 28-03N 016-34W 77M
Sep 19, 2020 - 05:00 PM EDT / 2020.09.19 2100 UTC
Wind: from the ENE (060 degrees) at 15 MPH (13 KT):0
Visibility: greater than 7 mile(s):0
Sky conditions: mostly clear
Temperature: 73 F (23 C)
Dew Point: 64 F (18 C)
Relative Humidity: 73%
Pressure (altimeter): 30.06 in. Hg (1018 hPa)
ob: GCTS 192100Z 06013KT 9999 FEW025 23/18 Q1018 NOSIG
cycle: 21

Station Type Date Time Source
GCTS TAF 2020/09/19 21:27 UTC NOAA

TAF GCTS 192000Z 1921/2021 06013KT 9999 FEW020 TX29/2014Z TN21/2007Z

Example: see airport list